Time;durP1;ratioP1;P1;durP2;ratioP2;P2;SDS_P1;SDS_P2;PMS_P1;PMS_P2;Temp;Humidity;BMP_temperature;BMP_pressure;BME280_temperature;BME280_humidity;BME280_pressure;Samples;Min_cycle;Max_cycle;Signal;HPM_P1;HPM_P2
2022/04/18 00:01:16;;;;;;;35.75;14.05;;;2.40;99.90;;;0.89;91.07;102047.34;4976187;28;20517;-75
2022/04/18 00:03:42;;;;;;;35.15;13.23;;;2.40;99.90;;;0.90;91.23;102049.91;4973608;28;20625;-75
2022/04/18 00:06:08;;;;;;;32.97;14.10;;;2.40;99.90;;;0.90;91.60;102042.13;4979319;28;20025;-75
2022/04/18 00:08:34;;;;;;;33.35;14.07;;;2.40;99.90;;;0.90;91.27;102036.97;4962228;28;20034;-74
2022/04/18 00:10:59;;;;;;;32.97;13.05;;;2.40;99.90;;;0.91;91.75;102028.34;4972144;28;20025;-75
2022/04/18 00:13:25;;;;;;;43.25;18.13;;;2.40;99.90;;;0.92;92.01;102035.25;4971793;28;20483;-76
2022/04/18 00:15:51;;;;;;;33.97;13.43;;;2.40;99.90;;;0.91;91.80;102028.34;4963318;28;20458;-74
2022/04/18 00:18:17;;;;;;;27.38;12.80;;;2.40;99.90;;;0.93;91.98;102026.66;4960655;28;20129;-74
2022/04/18 00:20:42;;;;;;;32.30;14.20;;;2.40;99.90;;;0.94;91.92;102027.50;4972472;28;20529;-76
2022/04/18 00:23:08;;;;;;;30.50;15.20;;;2.40;99.90;;;0.92;91.81;102024.03;4952178;28;20057;-74
2022/04/18 00:25:34;;;;;;;49.80;19.90;;;2.40;99.90;;;0.91;91.86;102025.75;4963822;28;20085;-75
2022/04/18 00:28:01;;;;;;;32.63;14.55;;;2.40;99.90;;;0.90;93.24;102020.53;4961721;28;20470;-74
2022/04/18 00:30:27;;;;;;;37.58;15.27;;;2.40;99.90;;;0.90;95.45;102016.22;4963973;28;20057;-75
2022/04/18 00:32:53;;;;;;;39.95;15.30;;;2.40;99.90;;;0.94;96.78;102017.13;4969149;28;20101;-75
2022/04/18 00:35:18;;;;;;;29.55;14.02;;;2.50;99.90;;;0.98;98.12;102011.13;4971881;28;20497;-76
2022/04/18 00:37:44;;;;;;;36.22;14.95;;;2.50;99.90;;;1.03;98.79;102015.53;4979947;28;20030;-75
2022/04/18 00:40:12;;;;;;;35.88;15.48;;;2.50;99.90;;;1.04;98.61;102008.63;4963903;28;20192;-74
2022/04/18 00:42:44;;;;;;;37.20;15.20;;;2.50;99.90;;;1.07;98.50;102000.88;4977409;28;20509;-74
2022/04/18 00:45:11;;;;;;;60.80;24.48;;;2.60;99.90;;;1.08;97.75;102007.81;4980181;28;20081;-76
2022/04/18 00:47:37;;;;;;;36.95;14.07;;;2.60;99.90;;;1.06;97.39;102006.03;4971676;28;20092;-75
2022/04/18 00:50:03;;;;;;;37.17;15.07;;;2.50;99.90;;;1.01;97.48;102000.78;4980203;28;20434;-74
2022/04/18 00:52:32;;;;;;;35.15;14.35;;;2.50;99.90;;;0.98;97.11;102001.63;4980265;28;20026;-75
2022/04/18 00:55:02;;;;;;;33.60;14.45;;;2.50;99.90;;;0.96;96.97;101999.88;4966914;28;20034;-76
2022/04/18 00:57:29;;;;;;;36.20;15.90;;;2.40;99.90;;;0.92;96.80;102005.88;4962470;28;20034;-74
2022/04/18 00:59:55;;;;;;;42.53;17.33;;;2.40;99.90;;;0.89;97.82;102001.50;4979795;28;20034;-75
2022/04/18 01:02:21;;;;;;;44.17;17.73;;;2.40;99.90;;;0.90;98.81;101995.47;4978753;28;20064;-75
2022/04/18 01:04:48;;;;;;;44.80;17.05;;;2.40;99.90;;;0.93;99.38;101994.63;4966830;28;20030;-75
2022/04/18 01:07:14;;;;;;;43.80;17.85;;;2.40;99.90;;;0.92;100.00;101998.09;4973623;28;20021;-74
2022/04/18 01:09:40;;;;;;;43.95;17.02;;;2.50;99.90;;;0.94;99.97;101991.19;4983342;28;22269;-75
2022/04/18 01:12:06;;;;;;;43.50;17.40;;;2.50;99.90;;;0.98;100.00;101995.56;4982340;28;20113;-75
2022/04/18 01:14:32;;;;;;;49.58;21.02;;;2.50;99.90;;;0.98;100.00;101988.66;4957921;28;20465;-75
2022/04/18 01:16:58;;;;;;;40.47;16.83;;;2.50;99.90;;;1.00;100.00;101991.28;4973852;28;20036;-75
2022/04/18 01:19:24;;;;;;;49.55;17.23;;;2.50;99.90;;;1.03;100.00;101987.00;4957522;28;20895;-75
2022/04/18 01:21:50;;;;;;;43.95;17.02;;;2.50;99.90;;;1.06;100.00;101986.19;4984679;28;20031;-75
2022/04/18 01:29:45;;;;;;;72.10;26.15;;;2.40;99.90;;;0.77;96.38;101988.38;4981984;28;20156;-75
2022/04/18 01:32:11;;;;;;;50.60;19.38;;;2.30;99.90;;;0.71;96.25;101983.09;4981250;28;20145;-75
2022/04/18 01:34:37;;;;;;;49.33;18.58;;;2.20;99.90;;;0.66;96.11;101985.63;4979828;28;20038;-75
2022/04/18 01:37:03;;;;;;;35.53;14.82;;;2.20;99.90;;;0.64;96.26;101976.94;4974309;28;20042;-75
2022/04/18 01:39:28;;;;;;;42.50;17.73;;;2.20;99.90;;;0.63;97.28;101969.16;4982689;28;20065;-75
2022/04/18 01:41:54;;;;;;;41.25;16.52;;;2.20;99.90;;;0.62;96.91;101970.88;4982442;28;20402;-75
2022/04/18 01:44:21;;;;;;;34.25;13.38;;;2.10;99.90;;;0.57;97.04;101964.75;4971281;28;20042;-75
2022/04/18 01:46:47;;;;;;;31.65;13.82;;;2.10;99.90;;;0.48;96.46;101959.47;4984402;28;20030;-75
2022/04/18 01:49:13;;;;;;;26.50;10.88;;;2.00;99.90;;;0.36;95.71;101952.34;4973597;28;20041;-75
2022/04/18 01:51:39;;;;;;;16.17;7.15;;;1.90;99.90;;;0.22;95.06;101957.34;4972783;28;20109;-74
2022/04/18 01:54:04;;;;;;;13.35;6.82;;;1.80;99.90;;;0.08;94.51;101945.88;4972808;28;20034;-75
2022/04/18 01:56:30;;;;;;;22.45;10.18;;;1.70;99.90;;;-0.04;93.40;101941.38;4981034;28;20038;-75
2022/04/18 01:58:56;;;;;;;28.45;12.15;;;1.60;99.90;;;-0.12;93.58;101940.38;4981532;28;20025;-75
2022/04/18 02:01:22;;;;;;;27.35;12.65;;;1.50;99.90;;;-0.18;93.66;101941.13;4981875;28;20109;-75
2022/04/18 02:03:47;;;;;;;31.52;14.35;;;1.40;99.90;;;-0.20;93.66;101940.22;4966793;28;20026;-75
2022/04/18 02:06:13;;;;;;;35.05;14.52;;;1.40;99.90;;;-0.22;94.39;101937.63;4972887;28;20045;-74
2022/04/18 02:08:39;;;;;;;30.08;13.43;;;1.40;99.90;;;-0.24;94.55;101934.16;4983325;28;20093;-75
2022/04/18 02:11:05;;;;;;;34.38;14.18;;;1.40;99.90;;;-0.24;95.30;101934.16;4982299;28;20414;-74
2022/04/18 02:13:32;;;;;;;33.88;14.90;;;1.40;99.90;;;-0.23;95.40;101935.88;4971506;28;20039;-75
2022/04/18 02:15:59;;;;;;;41.40;16.33;;;1.30;99.90;;;-0.25;95.82;101942.75;4955526;28;20038;-75
2022/04/18 02:18:25;;;;;;;38.70;16.20;;;1.40;99.90;;;-0.25;96.17;101932.38;4962632;28;20038;-74
2022/04/18 02:20:50;;;;;;;31.80;13.82;;;1.40;99.90;;;-0.23;96.63;101938.47;4970408;28;20038;-74
2022/04/18 02:23:16;;;;;;;34.38;15.10;;;1.40;99.90;;;-0.23;96.96;101933.28;4981691;28;20031;-74
2022/04/18 02:25:42;;;;;;;43.03;16.30;;;1.40;99.90;;;-0.21;97.19;101931.59;4983392;28;20496;-75
2022/04/18 02:28:07;;;;;;;32.25;14.60;;;1.40;99.90;;;-0.22;97.36;101935.03;4976270;28;20448;-74
2022/04/18 02:30:33;;;;;;;32.03;13.80;;;1.40;99.90;;;-0.26;97.43;101925.47;4979890;28;20502;-75
2022/04/18 02:33:02;;;;;;;28.13;11.85;;;1.30;99.90;;;-0.30;97.34;101917.59;4987466;28;20592;-76
2022/04/18 02:35:28;;;;;;;25.83;11.63;;;1.30;99.90;;;-0.34;97.44;101921.88;4973451;28;20132;-75
2022/04/18 02:37:54;;;;;;;26.90;12.18;;;1.30;99.90;;;-0.36;97.18;101917.53;4964092;28;20092;-76
2022/04/18 02:40:22;;;;;;;29.00;13.30;;;1.30;99.90;;;-0.39;97.32;101915.72;4981387;28;20101;-75
2022/04/18 02:42:48;;;;;;;29.88;12.25;;;1.20;99.90;;;-0.41;97.01;101914.88;4979006;28;20032;-75
2022/04/18 02:45:19;;;;;;;27.80;13.02;;;1.20;99.90;;;-0.45;96.51;101911.34;4979751;28;20034;-75
2022/04/18 02:47:46;;;;;;;30.00;13.45;;;1.10;99.90;;;-0.49;97.07;101912.13;4962950;28;20161;-75
2022/04/18 02:50:12;;;;;;;38.17;14.82;;;1.10;99.90;;;-0.52;97.03;101916.38;4955284;28;20541;-75
2022/04/18 02:52:39;;;;;;;38.28;15.25;;;1.10;99.90;;;-0.55;97.04;101913.75;4973022;28;20030;-75
2022/04/18 02:55:07;;;;;;;37.33;14.80;;;1.10;99.90;;;-0.56;97.16;101911.97;4960124;28;20495;-76
2022/04/18 02:57:33;;;;;;;52.03;18.92;;;1.00;99.90;;;-0.60;97.08;101911.06;4990036;28;20133;-75
2022/04/18 02:59:59;;;;;;;48.10;19.02;;;1.00;99.90;;;-0.59;98.14;101909.34;4973624;28;20509;-75
2022/04/18 03:02:25;;;;;;;53.50;19.98;;;1.00;99.90;;;-0.59;98.00;101911.94;4980017;28;20042;-74
2022/04/18 03:04:51;;;;;;;53.00;20.30;;;1.00;99.90;;;-0.60;98.98;101905.00;4980632;28;20044;-74
2022/04/18 03:07:19;;;;;;;54.17;19.92;;;1.00;99.90;;;-0.60;98.68;101908.47;4980574;28;20482;-75
2022/04/18 03:09:46;;;;;;;52.88;20.92;;;1.00;99.90;;;-0.57;99.20;101903.34;4973190;28;20034;-74
2022/04/18 03:12:11;;;;;;;52.50;21.55;;;1.00;99.90;;;-0.54;99.43;101895.66;4970622;28;20045;-76
2022/04/18 03:14:38;;;;;;;55.47;20.98;;;1.00;99.90;;;-0.52;99.91;101895.66;4979514;28;20037;-75
2022/04/18 03:17:04;;;;;;;55.80;22.42;;;1.00;99.90;;;-0.52;100.00;101901.75;4980939;28;20398;-75
2022/04/18 03:19:29;;;;;;;59.38;22.40;;;1.10;99.90;;;-0.49;100.00;101895.75;4956449;28;20031;-75
2022/04/18 03:21:55;;;;;;;60.42;22.65;;;1.10;99.90;;;-0.48;100.00;101892.28;4956562;28;20030;-75
2022/04/18 03:24:21;;;;;;;55.65;22.30;;;1.20;99.90;;;-0.45;100.00;101898.41;4969869;28;20122;-76
2022/04/18 03:26:47;;;;;;;58.53;24.50;;;1.20;99.90;;;-0.40;100.00;101901.06;4986841;28;20030;-75
2022/04/18 03:29:12;;;;;;;60.05;24.55;;;1.20;99.90;;;-0.40;100.00;101895.88;4991399;28;20113;-75
2022/04/18 03:31:38;;;;;;;80.03;31.02;;;1.20;99.90;;;-0.38;100.00;101896.78;4954981;28;20033;-74
2022/04/18 03:34:04;;;;;;;74.03;30.48;;;1.20;99.90;;;-0.35;100.00;101893.38;4979260;28;20364;-75
2022/04/18 03:42:00;;;;;;;65.72;24.83;;;1.30;99.90;;;-0.35;100.00;101881.31;4981664;28;20092;-75
2022/04/18 03:44:26;;;;;;;53.63;22.23;;;1.20;99.90;;;-0.36;100.00;101884.75;4979249;28;20030;-75
2022/04/18 03:46:51;;;;;;;103.05;35.78;;;1.20;99.90;;;-0.36;100.00;101882.16;4992209;28;20125;-75
2022/04/18 03:49:18;;;;;;;52.00;20.35;;;1.30;99.90;;;-0.30;100.00;101882.28;4970924;28;20045;-74
2022/04/18 03:51:44;;;;;;;42.15;15.77;;;1.30;99.90;;;-0.31;100.00;101885.69;4981115;28;20076;-75
2022/04/18 03:54:09;;;;;;;45.85;17.35;;;1.30;99.90;;;-0.33;100.00;101886.50;4978656;28;20038;-74
2022/04/18 03:56:36;;;;;;;76.80;27.58;;;1.20;99.90;;;-0.32;100.00;101877.91;4971434;28;20117;-74
2022/04/18 03:59:02;;;;;;;63.40;25.08;;;1.30;99.90;;;-0.30;100.00;101874.50;4964127;28;20076;-74
2022/04/18 04:01:27;;;;;;;48.88;20.02;;;1.30;99.90;;;-0.30;100.00;101882.28;4974044;28;20022;-75
2022/04/18 04:03:53;;;;;;;35.47;15.57;;;1.30;99.90;;;-0.30;100.00;101884.84;4962988;28;20122;-75
2022/04/18 04:06:19;;;;;;;38.17;15.73;;;1.30;99.90;;;-0.24;100.00;101882.38;4981217;28;20026;-75
2022/04/18 04:08:45;;;;;;;38.25;14.68;;;1.30;99.90;;;-0.23;100.00;101883.25;4962111;28;20113;-74
2022/04/18 04:11:11;;;;;;;53.33;20.52;;;1.30;99.90;;;-0.17;100.00;101877.28;4986204;28;20190;-75
2022/04/18 04:13:37;;;;;;;171.52;60.88;;;1.40;99.90;;;-0.10;100.00;101877.41;4980761;28;20030;-75
2022/04/18 04:16:03;;;;;;;113.70;43.17;;;1.40;99.90;;;-0.01;100.00;101882.72;4980775;28;20048;-74
2022/04/18 04:18:29;;;;;;;75.45;26.63;;;1.50;99.90;;;0.02;100.00;101881.88;4977499;28;20053;-74
2022/04/18 04:20:55;;;;;;;63.92;22.17;;;1.50;99.90;;;0.08;100.00;101883.72;4980058;28;20026;-75
2022/04/18 04:23:21;;;;;;;48.35;18.70;;;1.60;99.90;;;0.09;100.00;101881.16;4980457;28;20042;-74
2022/04/18 04:25:46;;;;;;;59.42;23.40;;;1.70;99.90;;;0.26;100.00;101883.09;4977259;28;21030;-74
2022/04/18 04:28:12;;;;;;;53.72;20.08;;;1.70;99.90;;;0.32;100.00;101880.59;4975742;28;20030;-75
2022/04/18 04:30:38;;;;;;;68.53;24.30;;;1.80;99.90;;;0.39;100.00;101875.53;4979113;28;20041;-74
2022/04/18 04:33:04;;;;;;;66.18;24.02;;;1.80;99.90;;;0.49;100.00;101879.13;4962995;28;20033;-74
2022/04/18 04:35:30;;;;;;;85.45;30.08;;;1.90;99.90;;;0.59;100.00;101875.81;4977056;28;20034;-74
2022/04/18 04:37:55;;;;;;;62.30;23.90;;;2.00;99.90;;;0.71;100.00;101871.63;4973645;28;20113;-75
2022/04/18 04:40:21;;;;;;;45.40;19.70;;;2.10;99.90;;;0.89;100.00;101876.16;4979686;28;20454;-74
2022/04/18 04:42:47;;;;;;;60.03;22.42;;;2.30;99.90;;;1.14;100.00;101877.28;4965559;28;20478;-75
2022/04/18 04:45:13;;;;;;;54.22;21.10;;;3.00;99.90;;;3.11;100.00;101873.41;4974054;28;20414;-75
2022/04/18 04:47:38;;;;;;;64.10;24.90;;;4.60;99.90;;;6.14;93.62;101875.84;4974555;28;20042;-75
2022/04/18 04:50:05;;;;;;;55.45;20.67;;;6.10;99.90;;;8.43;79.87;101880.44;4974641;28;20101;-75
2022/04/18 04:52:31;;;;;;;48.55;19.77;;;7.60;99.90;;;10.27;66.76;101870.06;4981400;28;20041;-75
2022/04/18 04:54:57;;;;;;;30.35;14.88;;;9.20;99.90;;;12.31;58.89;101876.06;4983081;28;20433;-76
2022/04/18 04:57:23;;;;;;;29.48;13.98;;;10.50;99.90;;;13.95;52.50;101871.47;4975196;28;20029;-76
2022/04/18 04:59:48;;;;;;;28.33;13.93;;;11.70;99.90;;;15.32;47.49;101876.78;4974486;28;20436;-76
2022/04/18 05:02:18;;;;;;;27.05;14.18;;;12.60;99.90;;;16.51;44.67;101884.97;4984479;28;20431;-76
2022/04/18 05:04:44;;;;;;;30.10;13.85;;;13.60;99.90;;;17.65;42.05;101908.00;4973018;28;20490;-76
2022/04/18 05:07:09;;;;;;;25.83;13.48;;;14.40;99.90;;;18.78;39.72;101923.53;4952253;28;20088;-76
2022/04/18 05:09:35;;;;;;;24.33;13.07;;;15.30;99.90;;;19.92;37.92;101934.94;4972944;28;20031;-76
2022/04/18 05:12:01;;;;;;;26.48;14.65;;;16.20;99.90;;;21.07;36.19;101951.06;4974282;28;20494;-76
2022/04/18 05:14:27;;;;;;;43.05;20.13;;;17.00;97.10;;;21.95;34.57;101966.97;4956199;28;20026;-76
2022/04/18 05:16:53;;;;;;;38.97;17.20;;;17.70;97.60;;;22.79;33.61;101980.25;4984773;28;20026;-76
2022/04/18 05:19:19;;;;;;;22.10;12.00;;;18.40;96.00;;;23.72;32.09;101990.69;4979519;28;20018;-76
2022/04/18 05:21:45;;;;;;;24.08;12.82;;;19.10;95.20;;;24.49;30.95;102011.22;4982954;28;20045;-76
2022/04/18 05:24:11;;;;;;;23.02;13.25;;;19.60;93.20;;;24.96;29.88;102022.41;4973576;28;20367;-77
2022/04/18 05:26:36;;;;;;;22.95;13.27;;;20.20;93.20;;;25.51;29.31;102036.44;4964545;28;20052;-76
2022/04/18 05:29:03;;;;;;;22.30;13.05;;;20.70;92.30;;;26.20;28.65;102040.09;4962226;28;20032;-76
2022/04/18 05:31:28;;;;;;;23.33;12.35;;;21.20;92.00;;;26.92;27.90;102048.69;4983110;28;20030;-77
2022/04/18 05:33:55;;;;;;;26.50;13.80;;;21.70;91.40;;;27.52;27.40;102061.88;4983417;28;20375;-76
2022/04/18 05:36:21;;;;;;;27.55;14.40;;;22.20;90.50;;;28.19;26.76;102070.56;4973831;28;20128;-76
2022/04/18 05:38:47;;;;;;;29.70;16.75;;;22.70;89.00;;;28.71;26.46;102067.13;4963499;28;20521;-76
2022/04/18 05:41:13;;;;;;;19.88;12.65;;;23.20;87.70;;;29.12;25.61;102091.84;4981349;28;20049;-77
2022/04/18 05:43:40;;;;;;;19.90;12.52;;;23.60;87.00;;;29.60;25.28;102102.06;4973959;28;20038;-78
2022/04/18 05:46:05;;;;;;;21.23;12.73;;;24.10;87.40;;;30.13;24.94;102110.91;4983479;28;20113;-77
2022/04/18 05:48:31;;;;;;;22.52;14.65;;;24.50;86.20;;;30.62;24.60;102107.38;4953356;28;20033;-77
2022/04/18 05:50:57;;;;;;;30.50;19.73;;;24.90;82.20;;;30.82;24.59;102119.63;4973117;28;20038;-77
2022/04/18 05:53:27;;;;;;;28.45;18.58;;;25.20;82.70;;;31.11;24.03;102120.94;4963960;28;20045;-77
2022/04/18 05:55:53;;;;;;;31.25;18.48;;;25.40;81.10;;;31.01;24.23;102121.13;4964455;28;20097;-77
2022/04/18 05:58:18;;;;;;;28.30;17.95;;;24.70;78.60;;;27.37;27.11;102131.81;4957715;28;20038;-77
2022/04/18 06:00:44;;;;;;;33.95;20.05;;;24.10;82.00;;;28.22;27.13;102127.13;4973071;28;20034;-77
2022/04/18 06:03:11;;;;;;;36.78;19.25;;;23.60;79.40;;;27.56;26.69;102134.44;4982121;28;20034;-77
2022/04/18 06:05:37;;;;;;;33.10;19.83;;;23.20;79.60;;;27.27;27.58;102133.72;4976983;28;20080;-78
2022/04/18 06:08:04;;;;;;;32.42;19.23;;;22.50;79.90;;;25.58;28.99;102145.44;4966256;28;20022;-78
2022/04/18 06:10:30;;;;;;;32.67;20.30;;;22.10;82.10;;;25.80;29.22;102143.53;4996153;28;20425;-78
2022/04/18 06:12:55;;;;;;;32.45;19.75;;;21.30;83.50;;;22.41;32.64;102131.69;4982545;28;20097;-77
2022/04/18 06:15:21;;;;;;;35.67;20.83;;;20.50;85.70;;;20.50;35.95;102128.94;4956530;28;20030;-77
2022/04/18 06:17:47;;;;;;;34.03;20.95;;;19.60;88.90;;;19.92;37.70;102119.38;4972799;28;20041;-78
2022/04/18 06:20:13;;;;;;;36.35;21.45;;;18.70;90.50;;;19.43;38.61;102123.25;4982140;28;20077;-76
2022/04/18 06:22:39;;;;;;;34.42;20.88;;;17.50;91.50;;;17.08;42.36;102123.19;4985110;28;20034;-76
2022/04/18 06:25:05;;;;;;;;;;;17.40;92.60;;;15.87;43.42;102119.38;4965733;28;20018;-77
2022/04/18 06:27:30;;;;;;;35.10;19.92;;;15.70;94.20;;;15.44;46.50;102116.00;4970772;28;19918;-76
2022/04/18 06:29:56;;;;;;;34.95;19.65;;;15.50;95.60;;;15.76;45.98;102118.06;4984816;28;20493;-76
2022/04/18 06:32:24;;;;;;;36.92;19.98;;;15.20;95.90;;;15.89;46.33;102104.22;4977415;28;20056;-76
2022/04/18 06:34:50;;;;;;;33.22;20.08;;;15.40;96.40;;;16.79;44.89;102105.09;4981421;28;20042;-77
2022/04/18 06:37:16;;;;;;;35.58;21.90;;;15.80;97.10;;;17.98;43.36;102088.22;4972847;28;20121;-76
2022/04/18 06:39:43;;;;;;;33.72;19.92;;;16.30;96.60;;;18.43;42.23;102082.03;4980023;28;20038;-76
2022/04/18 06:42:09;;;;;;;32.00;20.15;;;17.00;96.40;;;20.77;39.53;102083.41;4963898;28;20081;-77
2022/04/18 06:44:35;;;;;;;38.65;21.13;;;18.20;95.50;;;22.45;36.48;102077.66;4980318;28;20026;-77
2022/04/18 06:47:01;;;;;;;33.63;20.35;;;19.50;93.60;;;24.18;33.25;102083.75;4969290;28;20049;-76
2022/04/18 06:49:27;;;;;;;34.13;19.33;;;20.90;91.30;;;25.11;31.59;102087.59;4963065;28;20026;-77
2022/04/18 06:51:52;;;;;;;36.53;18.80;;;22.00;85.80;;;24.94;30.66;102097.13;4974067;28;20097;-77
2022/04/18 06:54:18;;;;;;;35.20;19.15;;;22.50;85.80;;;25.37;30.60;102104.19;4981146;28;20105;-77
2022/04/18 06:56:59;;;;;;;33.40;19.67;;;23.30;87.20;;;26.96;29.33;102110.41;4965584;28;20407;-76
2022/04/18 06:59:30;;;;;;;34.78;20.63;;;24.50;85.40;;;28.05;28.37;102117.97;4962375;28;20040;-77
2022/04/18 07:01:58;;;;;;;31.88;20.10;;;25.60;83.90;;;29.21;27.46;102126.13;4962968;28;20049;-76
2022/04/18 07:04:25;;;;;;;33.55;19.48;;;26.60;82.50;;;29.99;26.06;102135.97;4983305;28;20030;-77
2022/04/18 07:06:51;;;;;;;36.22;19.52;;;27.30;78.70;;;30.04;25.81;102139.91;4972849;28;20180;-77
2022/04/18 07:09:18;;;;;;;31.08;18.48;;;27.30;77.90;;;29.51;26.18;102146.47;4972902;28;20487;-77
2022/04/18 07:11:45;;;;;;;29.20;16.73;;;27.90;74.30;;;29.56;25.41;102151.38;4981539;28;20479;-77
2022/04/18 07:14:15;;;;;;;21.92;13.32;;;27.80;65.80;;;28.19;25.26;102162.63;4962754;28;20405;-77
2022/04/18 07:16:43;;;;;;;22.40;13.30;;;27.40;66.90;;;28.20;25.62;102169.75;4963459;28;20081;-78
2022/04/18 07:19:10;;;;;;;21.83;13.98;;;27.10;68.10;;;28.11;26.19;102168.81;4977151;28;20149;-78
2022/04/18 07:21:36;;;;;;;23.17;13.50;;;27.10;68.10;;;27.81;26.07;102164.53;4968264;28;20027;-77
2022/04/18 07:24:03;;;;;;;23.30;14.20;;;27.20;69.40;;;28.36;26.01;102163.66;4967983;28;20141;-77
2022/04/18 07:26:29;;;;;;;26.58;15.73;;;27.40;67.30;;;28.29;25.90;102168.81;4983541;28;20030;-77
2022/04/18 07:28:55;;;;;;;25.42;15.90;;;27.80;70.70;;;28.99;25.99;102163.56;4976557;28;20026;-78
2022/04/18 07:31:21;;;;;;;28.08;15.30;;;28.10;66.80;;;28.89;25.56;102178.22;4964660;28;20113;-76
2022/04/18 07:33:47;;;;;;;25.30;15.05;;;28.50;66.60;;;29.36;25.80;102172.50;4980197;28;20418;-77
2022/04/18 07:36:13;;;;;;;23.38;15.73;;;28.60;64.10;;;28.62;25.78;102175.47;4971721;28;20046;-77
2022/04/18 07:38:50;;;;;;;24.30;15.82;;;27.50;64.50;;;26.72;27.26;102173.03;4978017;28;20049;-77
2022/04/18 07:41:20;;;;;;;25.17;16.40;;;27.80;67.00;;;28.43;25.92;102172.88;4969177;28;20033;-77
2022/04/18 07:43:47;;;;;;;23.17;15.57;;;28.50;69.40;;;29.19;25.87;102166.94;4982503;28;20050;-76
2022/04/18 07:46:15;;;;;;;17.80;11.48;;;27.80;61.10;;;26.45;26.08;102187.19;4961895;28;20034;-77
2022/04/18 07:48:41;;;;;;;21.08;12.38;;;27.90;66.80;;;27.51;26.21;102165.66;4969852;28;20030;-77
2022/04/18 07:53:52;;;;;;;16.73;11.57;;;27.50;65.00;;;26.91;27.26;102158.66;4972316;28;20382;-77
2022/04/18 07:56:20;;;;;;;15.02;8.93;;;27.20;62.50;;;25.92;27.90;102166.75;4946155;28;20046;-77
2022/04/18 07:58:46;;;;;;;12.95;7.68;;;26.70;63.60;;;25.03;27.65;102163.69;4982439;28;20105;-77
2022/04/18 08:01:12;;;;;;;14.63;8.43;;;25.20;64.20;;;23.35;30.28;102146.91;4969491;28;20019;-77
2022/04/18 08:03:38;;;;;;;13.77;8.57;;;24.40;67.40;;;22.55;31.47;102138.69;4971146;28;20082;-76
2022/04/18 08:06:04;;;;;;;8.90;5.70;;;23.70;68.40;;;22.67;30.71;102140.47;4970297;28;20077;-76
2022/04/18 08:08:32;;;;;;;8.38;5.60;;;23.70;68.70;;;22.50;30.73;102141.72;4971861;28;20034;-76
2022/04/18 08:10:58;;;;;;;10.63;6.05;;;23.30;66.50;;;21.44;31.82;102136.81;4980715;28;20654;-78
2022/04/18 08:13:24;;;;;;;10.90;6.07;;;23.00;69.80;;;21.70;31.55;102144.84;4977388;28;20128;-76
2022/04/18 08:15:51;;;;;;;12.35;6.63;;;22.30;69.00;;;20.71;32.75;102129.31;4977730;28;20084;-77
2022/04/18 08:18:17;;;;;;;11.90;7.50;;;22.20;72.40;;;21.15;34.07;102129.94;4972264;28;20046;-77
2022/04/18 08:20:43;;;;;;;11.63;7.13;;;22.30;73.90;;;21.20;33.46;102130.47;4953859;28;20025;-77
2022/04/18 08:23:09;;;;;;;14.95;7.47;;;22.60;72.40;;;21.96;32.84;102131.38;4962148;28;20088;-77
2022/04/18 08:25:35;;;;;;;12.40;7.43;;;22.50;70.70;;;21.74;32.79;102134.75;4965599;28;20077;-76
2022/04/18 08:28:01;;;;;;;9.55;6.35;;;22.20;71.50;;;21.09;33.42;102126.72;4972976;28;20053;-77
2022/04/18 08:30:27;;;;;;;8.50;5.07;;;22.10;71.40;;;21.13;32.93;102129.19;4978994;28;20035;-76
2022/04/18 08:32:53;;;;;;;5.22;3.25;;;21.50;68.80;;;19.93;32.61;102119.25;4976924;28;20026;-76
2022/04/18 08:35:19;;;;;;;4.97;3.22;;;21.10;68.60;;;19.57;33.00;102117.09;4977476;28;20038;-77
2022/04/18 08:37:46;;;;;;;5.32;3.60;;;20.10;72.00;;;18.43;35.55;102099.84;4977713;28;20037;-77
2022/04/18 08:40:14;;;;;;;9.82;4.88;;;19.90;72.90;;;18.93;35.25;102104.03;4980071;28;20041;-77
2022/04/18 08:42:41;;;;;;;8.50;3.72;;;20.10;73.20;;;19.29;34.21;102092.09;4962304;28;20041;-77
2022/04/18 08:45:14;;;;;;;9.05;3.70;;;19.80;72.80;;;18.53;34.62;102103.72;4953459;28;20077;-77
2022/04/18 08:53:16;;;;;;;6.10;3.90;;;18.80;75.50;;;17.67;37.71;102083.66;4975616;28;20509;-77
2022/04/18 08:55:42;;;;;;;9.68;4.63;;;18.60;79.00;;;17.79;38.00;102077.69;4971341;28;20087;-76
2022/04/18 08:58:14;;;;;;;10.40;6.00;;;18.40;78.40;;;17.33;38.72;102077.53;4975726;28;20035;-77
2022/04/18 09:00:40;;;;;;;4.95;3.10;;;17.60;75.60;;;15.94;39.14;102065.03;4968430;28;20038;-76
2022/04/18 09:03:06;;;;;;;7.18;4.63;;;17.20;79.90;;;15.72;41.47;102054.56;4971969;28;20092;-77
2022/04/18 09:05:37;;;;;;;6.07;3.70;;;17.00;84.80;;;15.88;42.81;102050.25;4975267;28;20052;-76
2022/04/18 09:08:07;;;;;;;6.28;3.90;;;16.80;83.60;;;15.54;42.32;102051.78;4980865;28;20030;-77
2022/04/18 09:10:35;;;;;;;7.97;3.80;;;16.70;82.10;;;15.54;42.57;102050.94;4979576;28;20026;-77
2022/04/18 09:13:06;;;;;;;10.38;4.57;;;16.60;88.90;;;15.22;45.67;102036.50;4962686;28;20038;-77
2022/04/18 09:15:51;;;;;;;4.78;2.85;;;16.10;84.30;;;14.50;44.08;102048.41;4981748;28;20036;-75
2022/04/18 09:18:23;;;;;;;6.38;3.83;;;15.70;85.20;;;14.41;44.67;102048.81;4956203;28;20034;-77
2022/04/18 09:20:58;;;;;;;6.20;3.83;;;15.70;85.80;;;14.33;44.83;102038.53;4961465;28;21435;-76
2022/04/18 09:23:34;;;;;;;7.63;4.30;;;15.50;87.80;;;14.39;46.12;102035.63;4954080;28;20022;-76
2022/04/18 09:26:04;;;;;;;4.72;2.83;;;15.50;88.40;;;14.08;45.10;102026.28;4984171;28;20390;-77
2022/04/18 09:28:33;;;;;;;4.65;2.20;;;15.40;83.40;;;14.31;43.52;102019.19;4975089;28;20092;-75
2022/04/18 09:31:19;;;;;;;6.45;2.65;;;15.70;83.60;;;14.80;42.62;102018.91;4972376;28;20084;-77
2022/04/18 09:33:56;;;;;;;7.30;3.30;;;15.50;84.70;;;14.57;43.71;102010.16;4981512;28;20030;-77
2022/04/18 09:36:24;;;;;;;5.10;3.00;;;15.80;86.60;;;14.68;43.82;102005.25;4991007;28;20034;-76
2022/04/18 09:38:53;;;;;;;4.60;2.45;;;15.90;88.40;;;15.04;44.79;102003.69;4991530;28;20037;-76
2022/04/18 09:41:26;;;;;;;7.10;2.58;;;15.90;86.10;;;14.97;44.25;101995.16;4974293;28;20561;-77
2022/04/18 09:43:54;;;;;;;9.02;6.32;;;16.00;85.80;;;15.05;43.32;101990.34;4980117;28;20536;-76
2022/04/18 09:46:22;;;;;;;6.47;3.30;;;15.90;83.30;;;14.59;42.82;101983.59;4981224;28;20101;-76
2022/04/18 09:48:51;;;;;;;8.13;2.83;;;16.10;84.50;;;14.85;43.56;101975.34;4980626;28;20037;-77
2022/04/18 09:51:29;;;;;;;4.85;2.25;;;15.90;84.60;;;14.86;43.47;101973.53;4983613;28;20034;-76
2022/04/18 09:53:57;;;;;;;4.38;2.50;;;15.80;84.60;;;14.68;44.01;101961.97;4973556;28;20035;-76
2022/04/18 09:56:27;;;;;;;3.80;2.65;;;15.90;85.30;;;14.98;43.13;101957.09;4973440;28;20033;-77
2022/04/18 09:58:55;;;;;;;4.80;2.80;;;15.90;83.00;;;14.83;42.49;101957.78;4964119;28;20040;-77
2022/04/18 10:01:23;;;;;;;3.50;2.17;;;16.10;86.50;;;15.19;43.24;101952.59;4958406;28;20533;-77
2022/04/18 10:03:52;;;;;;;5.03;2.20;;;16.10;82.60;;;15.02;41.83;101952.50;4974806;28;20026;-76
2022/04/18 10:06:20;;;;;;;4.75;2.75;;;15.80;84.30;;;14.43;43.96;101952.44;4966547;28;20033;-77
2022/04/18 10:08:46;;;;;;;4.35;2.33;;;15.70;84.10;;;14.49;43.60;101936.25;4963666;28;20122;-76
2022/04/18 10:11:12;;;;;;;5.65;2.30;;;15.70;86.50;;;14.67;44.18;101923.16;4981460;28;20038;-76
2022/04/18 10:13:39;;;;;;;7.00;3.08;;;15.80;85.40;;;14.84;44.31;101920.59;4980422;28;20057;-76
2022/04/18 10:16:06;;;;;;;3.80;2.10;;;16.00;85.70;;;15.24;43.23;101923.19;4965444;28;20478;-76
2022/04/18 10:18:59;;;;;;;2.25;1.42;;;16.00;82.60;;;14.57;42.30;101926.19;4962460;28;20038;-76
2022/04/18 10:21:30;;;;;;;2.47;1.73;;;15.60;83.00;;;13.97;43.44;101927.88;4948222;28;20040;-76
2022/04/18 10:24:30;;;;;;;3.13;1.90;;;15.70;86.80;;;14.79;42.13;101917.28;4970432;28;20533;-77